Kezdőlap
METAR-TAF:

METAR-TAF

Repülőterek :

Ankeny Regional Airport

Ankeny, Iowa, Amerikai Egyesült Államok

földrajzi szélesség: 41-41-24N, földrajzi hosszúság: 093-33-57W, magasság: 275 m

Jelenlegi meteorológiai megfigyelések

A jelentés 28 perccel ezelõtt készült, 17:55 UTC
Délkeleti szél 10 kt széllökések: 16 kt, kelet-délkeleti és déli között változik
Hőmérséklet 13°C
Páratartalom 58%
Légköri nyomás 1015 hPa
Látótávolság: 16.1 km
Derült ég

METAR: KIKV 011755Z AUTO 14010G16KT 120V190 10SM CLR 13/05 A2997 RMK AO2

Idő: 13:23 (18:23 UTC)


TAF: hiányzik

Meteorológiai megfigyelések és előrejelzések több, mint 4000 repülőtéren (METAR és TAF jelentéseket).

A térképen piros és sárga pontok jelzik az elérhető meteorológiai állomásokat.

Mozgassa az egeret a pont fölött, hogy megjelenjen az állomás neve.

Azután kattintson az időjárási megfigyelések és előrejelzések megtekintéséhez.

A térkép megváltoztatása: kattintson a fekete keresztel jelölt zöld gombra ráközelítéshez, a vonallal jelölt zöld gombra távolításhoz, vagy a zöld nyilakra a szomszédos térképek eléréséhez.


METAR-TAF: